Latest Weather Observations for Tarcoola

IDS60801

Issued at 10:31 am CDT Tuesday 23 December 2014 (issued every 30 minutes, with the page automatically refreshed every 10 minutes)

About weather observations | Map of weather stations | Latest weather observations for SA | Other Formats
Station Details ID: 016098 Name: TARCOOLA AERO Lat: -30.71 Lon: 134.58 Height: 123.0 m
Data from the previous 72 hours. | See also: Recent months at Tarcoola
Date/Time
CDT
Temp
°C
App
Temp
°C
Dew
Point
Rel
Hum
%
Delta-T
°C
Wind Press
QNH
hPa
Press
MSL
hPa
Rain
since 9 am
mm
Dir
 
Spd
km/h
Gust
km/h
Spd
kts
Gust
kts
23/10:30am 22.4 17.8 9.6 44 6.9 SSW 24 33 13 18 1016.8 1016.2 0.0
23/10:00am 22.0 17.2 10.2 47 6.5 S 26 35 14 19 1016.6 1016.0 0.0
23/09:30am 20.3 15.9 10.4 53 5.4 SSW 24 37 13 20 1016.4 1015.8 0.0
23/09:00am 19.5 14.1 11.0 58 4.7 SW 30 39 16 21 1016.0 1015.4 0.0
23/08:30am 19.1 13.8 11.2 60 4.3 SSW 30 39 16 21 1015.9 1015.3 0.0
23/08:00am 18.8 14.6 12.5 67 3.5 SW 26 35 14 19 1015.2 1014.6 0.0
23/07:30am 18.6 15.6 12.6 68 3.4 SSW 20 28 11 15 1015.0 1014.4 0.0
23/07:00am 17.6 16.4 12.7 73 2.7 SW 11 17 6 9 1014.6 1014.0 0.0
23/06:30am 17.1 15.8 12.4 74 2.6 SW 11 17 6 9 1014.5 1013.8 0.0
23/06:00am 17.6 14.8 12.5 72 2.8 SSW 19 28 10 15 1014.0 1013.3 0.0
23/05:30am 17.7 15.8 13.0 74 2.6 SSW 15 20 8 11 1013.7 1013.0 0.0
23/05:00am 17.9 15.1 12.6 71 3.0 SW 19 26 10 14 1013.6 1012.9 0.0
23/04:30am 18.1 14.6 12.3 69 3.2 SSW 22 30 12 16 1013.4 1012.7 0.0
23/04:00am 18.3 15.1 11.8 66 3.6 SW 20 24 11 13 1013.4 1012.7 0.0
23/03:30am 19.0 13.5 10.6 58 4.6 SSW 30 43 16 23 1013.3 1012.6 0.0
23/03:00am 19.0 14.5 11.3 61 4.2 SW 26 35 14 19 1013.3 1012.6 0.0
23/02:30am 18.8 15.1 11.4 62 4.1 SW 22 28 12 15 1013.7 1013.0 0.0
23/02:00am 18.6 14.5 11.4 63 4.0 SW 24 32 13 17 1013.7 1013.0 0.0
23/01:30am 19.3 16.1 11.8 62 4.2 SSW 20 33 11 18 1013.8 1013.1 0.0
23/01:00am 19.6 15.5 11.6 60 4.4 SSW 24 32 13 17 1013.8 1013.1 0.0
23/12:30am 19.8 15.8 11.8 60 4.5 SSW 24 33 13 18 1014.1 1013.4 0.0
23/12:00am 19.9 15.7 12.4 62 4.2 SSW 26 37 14 20 1013.8 1013.1 0.0
 
Date/Time
CDT
Temp
°C
App
Temp
°C
Dew
Point
Rel
Hum
%
Delta-T
°C
Wind Press
QNH
hPa
Press
MSL
hPa
Rain
since 9 am
mm
Dir
 
Spd
km/h
Gust
km/h
Spd
kts
Gust
kts
22/11:30pm 20.0 14.8 12.7 63 4.1 SSW 32 39 17 21 1013.5 1012.8 0.0
22/11:00pm 20.2 14.9 12.4 61 4.4 SSW 32 39 17 21 1013.1 1012.4 0.0
22/10:30pm 20.4 15.6 12.9 62 4.3 SW 30 43 16 23 1012.8 1012.1 0.0
22/10:00pm 20.7 16.4 13.2 62 4.3 SW 28 39 15 21 1012.5 1011.8 0.0
22/09:30pm 20.8 15.8 13.3 62 4.3 SSW 32 44 17 24 1012.1 1011.4 0.0
22/09:00pm 21.0 16.0 13.4 62 4.4 SSW 32 43 17 23 1012.0 1011.3 0.0
22/08:30pm 22.6 17.0 13.4 56 5.3 SW 35 44 19 24 1011.0 1010.4 0.0
22/08:00pm 24.6 19.3 13.2 49 6.7 SW 33 43 18 23 1010.3 1009.7 0.0
22/07:30pm 26.1 21.3 13.9 47 7.3 SW 32 43 17 23 1010.0 1009.4 0.0
22/07:00pm 26.2 21.3 13.7 46 7.4 SW 32 44 17 24 1009.5 1008.9 0.0
22/06:35pm 26.2 21.5 14.3 48 7.1 SSW 32 50 17 27 1009.4 1008.8 0.0
22/06:30pm 26.4 21.5 14.2 47 7.3 SSW 33 46 18 25 1009.4 1008.8 0.0
22/06:00pm 26.8 21.2 14.5 46 7.4 SW 37 48 20 26 1009.0 1008.4 0.0
22/05:30pm 28.3 23.1 14.5 43 8.4 SW 35 50 19 27 1008.7 1008.1 0.0
22/05:14pm 29.3 24.6 14.3 40 9.1 WSW 32 50 17 27 1008.6 1008.0 0.0
22/05:00pm 29.5 24.1 14.9 41 8.9 SW 37 50 20 27 1008.4 1007.8 0.0
22/04:30pm 30.1 25.2 14.2 38 9.7 SW 33 50 18 27 1008.0 1007.4 0.0
22/04:27pm 30.9 26.4 14.9 37 9.8 SW 32 50 17 27 1008.0 1007.4 0.0
22/04:00pm 30.6 25.5 14.7 38 9.7 WSW 35 46 19 25 1007.9 1007.3 0.0
22/03:30pm 32.3 27.4 15.3 35 10.6 WSW 35 50 19 27 1007.6 1007.0 0.0
22/03:07pm 31.5 26.8 14.2 35 10.6 WSW 32 50 17 27 1007.5 1006.9 0.0
22/03:00pm 32.1 27.3 14.7 35 10.7 WSW 33 50 18 27 1007.4 1006.8 0.0
22/02:37pm 32.3 27.8 14.9 35 10.8 WSW 32 50 17 27 1007.5 1006.9 0.0
22/02:30pm 32.4 27.9 15.4 36 10.6 WSW 33 50 18 27 1007.6 1007.0 0.0
22/02:00pm 31.5 27.3 14.6 36 10.4 WSW 30 46 16 25 1007.8 1007.2 0.0
22/01:30pm 30.6 26.2 15.1 39 9.6 WSW 32 43 17 23 1008.1 1007.5 0.0
22/01:00pm 30.6 27.7 15.1 39 9.6 W 24 39 13 21 1008.4 1007.8 0.0
22/12:30pm 29.4 26.8 15.9 44 8.4 W 24 37 13 20 1008.8 1008.2 0.0
22/12:00pm 29.5 28.1 17.0 47 7.9 WSW 20 35 11 19 1008.8 1008.2 0.0
22/11:30am 27.7 25.4 16.6 50 6.9 WSW 24 35 13 19 1008.9 1008.3 0.0
22/11:00am 26.9 25.8 17.7 57 5.8 WSW 20 32 11 17 1009.2 1008.6 0.0
22/10:30am 25.6 25.7 18.3 64 4.6 W 15 20 8 11 1009.2 1008.6 0.0
22/10:00am 24.9 25.2 17.9 65 4.4 WSW 13 20 7 11 1009.2 1008.6 0.0
22/09:30am 24.7 25.9 19.1 71 3.6 W 11 15 6 8 1009.3 1008.7 0.0
22/09:00am 23.4 25.3 18.5 74 3.1 W 6 11 3 6 1008.9 1008.3 0.6
22/08:30am 23.0 25.9 18.1 74 3.1 CALM 0 0 0 0 1008.5 1007.9 0.6
22/08:00am 22.6 24.4 18.4 77 2.6 SW 6 9 3 5 1008.0 1007.4 0.6
22/07:30am 21.5 23.2 18.5 83 1.9 SSW 7 11 4 6 1007.8 1007.2 0.6
22/07:00am 21.2 22.7 18.8 86 1.5 SW 9 13 5 7 1007.7 1007.1 0.6
22/06:30am 21.1 24.1 18.5 85 1.6 CALM 0 0 0 0 1008.3 1007.7 0.6
22/06:00am 21.0 21.9 18.4 85 1.6 NNE 11 15 6 8 1008.4 1007.8 0.6
22/05:30am 21.5 20.6 18.1 81 2.1 NNW 20 26 11 14 1009.5 1008.9 0.2
22/05:00am 22.8 21.7 17.7 73 3.2 W 20 30 11 16 1009.2 1008.6 0.0
22/04:30am 23.2 20.7 17.2 69 3.7 W 26 35 14 19 1009.0 1008.4 0.0
22/04:00am 24.2 19.1 15.7 59 5.2 WSW 37 48 20 26 1008.8 1008.2 0.0
22/03:31am 28.2 24.1 8.5 29 10.8 W 20 46 11 25 1007.7 1007.1 0.0
22/03:30am 28.6 24.3 7.2 26 11.6 WNW 19 39 10 21 1007.6 1007.0 0.0
22/03:09am 29.4 24.2 5.5 22 12.6 NNW 22 41 12 22 1007.0 1006.3 0.0
22/03:00am 28.8 25.5 6.2 24 12.0 NE 13 20 7 11 1006.6 1005.9 0.0
22/02:30am 28.7 25.1 6.7 25 11.8 NE 15 20 8 11 1006.2 1005.5 0.0
22/02:00am 28.4 24.9 7.1 26 11.4 ENE 15 19 8 10 1006.2 1005.5 0.0
22/01:30am 28.1 25.3 6.8 26 11.4 NE 11 15 6 8 1006.5 1005.8 0.0
22/01:00am 28.6 24.6 6.7 25 11.7 ENE 17 22 9 12 1006.3 1005.6 0.0
22/12:30am 29.3 24.1 7.2 25 12.0 E 24 32 13 17 1006.2 1005.5 0.0
22/12:00am 29.9 24.2 6.5 23 12.6 E 26 32 14 17 1006.3 1005.6 0.0
 
Date/Time
CDT
Temp
°C
App
Temp
°C
Dew
Point
Rel
Hum
%
Delta-T
°C
Wind Press
QNH
hPa
Press
MSL
hPa
Rain
since 9 am
mm
Dir
 
Spd
km/h
Gust
km/h
Spd
kts
Gust
kts
21/11:30pm 30.3 24.1 6.2 22 12.9 E 28 39 15 21 1006.4 1005.7 0.0
21/11:00pm 31.0 25.4 5.4 20 13.6 E 24 35 13 19 1006.5 1005.8 0.0
21/10:30pm 31.9 25.9 1.1 14 15.3 E 22 30 12 16 1006.7 1006.0 0.0
21/10:00pm 32.0 26.7 2.1 15 15.1 E 19 24 10 13 1006.5 1005.8 0.0
21/09:30pm 32.4 27.0 2.5 15 15.3 E 20 33 11 18 1006.7 1006.0 0.0
21/09:00pm 32.9 29.1 1.9 14 15.7 ENE 11 15 6 8 1006.5 1005.8 0.0
21/08:30pm 33.4 30.6 2.3 14 15.9 SE 6 9 3 5 1006.3 1005.6 0.0
21/08:00pm 33.8 32.1 1.6 13 16.3 CALM 0 0 0 0 1006.4 1005.7 0.0
21/07:30pm 34.4 32.7 2.0 13 16.6 CALM 0 0 0 0 1006.5 1005.8 0.0
21/07:00pm 34.7 31.7 2.3 13 16.7 E 7 11 4 6 1006.3 1005.6 0.0
21/06:30pm 35.0 29.4 1.4 12 17.1 E 20 26 11 14 1006.7 1006.0 0.0
21/06:00pm 35.0 30.2 2.5 13 16.8 E 17 22 9 12 1007.0 1006.3 0.0
21/05:30pm 35.2 30.4 2.6 13 16.9 NE 17 24 9 13 1007.3 1006.6 0.0
21/05:00pm 35.1 28.6 2.6 13 16.8 NNE 26 41 14 22 1007.6 1007.0 0.0
21/04:54pm 35.2 28.1 1.5 12 17.2 NE 28 41 15 22 1007.7 1007.1 0.0
21/04:30pm 36.0 31.3 3.3 13 17.2 NE 17 22 9 12 1007.9 1007.3 0.0
21/04:00pm 34.8 29.6 2.3 13 16.7 ENE 19 28 10 15 1008.3 1007.7 0.0
21/03:30pm 35.0 29.2 2.5 13 16.8 NE 22 35 12 19 1008.3 1007.7 0.0
21/03:00pm 35.5 29.4 2.9 13 17.0 NE 24 37 13 20 1008.5 1007.9 0.0
21/02:30pm 34.5 28.8 5.0 16 15.8 NE 24 35 13 19 1008.8 1008.2 0.0
21/02:00pm 33.8 28.2 5.4 17 15.3 NNE 24 33 13 18 1009.3 1008.7 0.0
21/01:30pm 34.2 28.9 4.8 16 15.7 NE 22 30 12 16 1009.8 1009.2 0.0
21/01:00pm 33.9 28.1 4.6 16 15.6 NE 24 33 13 18 1010.2 1009.6 0.0
21/12:30pm 33.0 27.9 2.9 15 15.5 NE 19 28 10 15 1010.6 1010.0 0.0
21/12:00pm 32.3 27.5 2.4 15 15.2 NE 17 20 9 11 1011.1 1010.5 0.0
21/11:30am 31.1 26.8 3.2 17 14.3 NE 15 20 8 11 1011.6 1011.0 0.0
21/11:00am 31.1 25.5 1.4 15 14.7 NE 20 28 11 15 1011.5 1010.9 0.0
21/10:30am 30.9 25.3 1.3 15 14.6 NNE 20 26 11 14 1011.5 1010.9 0.0
21/10:00am 29.8 24.9 2.1 17 13.8 NNE 17 20 9 11 1011.6 1011.0 0.0
21/09:30am 29.2 24.2 4.6 21 12.7 NNE 20 28 11 15 1011.5 1010.9 0.0
21/09:00am 29.1 24.1 1.6 17 13.5 NE 17 20 9 11 1011.3 1010.7 0.0
21/08:30am 27.8 23.9 5.4 24 11.7 NNE 15 20 8 11 1011.4 1010.8 0.0
21/08:00am 26.8 24.7 9.6 34 9.6 NE 11 11 6 6 1010.8 1010.2 0.0
21/07:30am 29.0 23.2 -0.2 15 13.9 N 20 30 11 16 1011.1 1010.5 0.0
21/07:00am 29.5 23.9 -2.9 12 14.7 N 17 20 9 11 1010.7 1010.1 0.0
21/06:30am 29.0 23.9 -2.2 13 14.3 N 15 19 8 10 1010.0 1009.4 0.0
21/06:00am 29.1 23.5 -3.2 12 14.6 N 17 22 9 12 1009.5 1008.9 0.0
21/05:30am 29.4 23.2 -2.9 12 14.7 NNE 20 26 11 14 1009.2 1008.6 0.0
21/05:00am 29.5 23.3 -2.9 12 14.7 NNE 20 24 11 13 1008.8 1008.2 0.0
21/04:30am 29.3 24.4 -3.0 12 14.7 NNE 13 15 7 8 1009.0 1008.4 0.0
21/04:00am 29.8 24.6 -2.6 12 14.8 NE 15 19 8 10 1008.7 1008.1 0.0
21/03:30am 30.1 24.6 -2.4 12 15.0 NNE 17 22 9 12 1008.8 1008.2 0.0
21/03:00am 30.4 24.9 -2.2 12 15.1 NE 17 20 9 11 1008.9 1008.3 0.0
21/02:30am 30.6 24.7 -2.0 12 15.2 NE 19 26 10 14 1008.9 1008.3 0.0
21/02:00am 30.6 24.7 -2.0 12 15.2 NE 19 24 10 13 1009.1 1008.5 0.0
21/01:30am 30.7 25.2 -1.9 12 15.2 ENE 17 20 9 11 1009.2 1008.6 0.0
21/01:00am 30.8 25.5 -0.8 13 15.0 E 17 22 9 12 1009.3 1008.7 0.0
21/12:30am 31.5 25.7 -0.2 13 15.3 E 20 24 11 13 1009.7 1009.1 0.0
21/12:00am 31.3 26.4 -0.4 13 15.3 ENE 15 19 8 10 1009.6 1009.0 0.0
 
Date/Time
CDT
Temp
°C
App
Temp
°C
Dew
Point
Rel
Hum
%
Delta-T
°C
Wind Press
QNH
hPa
Press
MSL
hPa
Rain
since 9 am
mm
Dir
 
Spd
km/h
Gust
km/h
Spd
kts
Gust
kts
20/11:30pm 30.5 26.0 0.0 14 14.7 ENE 13 15 7 8 1009.6 1009.0 0.0
20/11:00pm 30.5 26.0 0.0 14 14.7 E 13 15 7 8 1009.6 1009.0 0.0
20/10:30pm 31.1 26.6 -0.5 13 15.2 E 13 17 7 9 1009.7 1009.1 0.0
20/10:00pm 31.4 27.3 -0.3 13 15.3 ESE 11 13 6 7 1009.6 1009.0 0.0
20/09:30pm 31.6 28.3 -0.1 13 15.4 ESE 7 9 4 5 1009.7 1009.1 0.0
20/09:00pm 33.2 30.1 0.0 12 16.3 ESE 6 7 3 4 1009.6 1009.0 0.0
20/08:30pm 34.2 31.6 0.8 12 16.7 E 4 7 2 4 1009.7 1009.1 0.0
20/08:00pm 34.9 32.7 1.3 12 17.0 N 2 7 1 4 1009.8 1009.2 0.0
20/07:30pm 36.1 32.9 1.0 11 17.9 N 7 13 4 7 1009.7 1009.1 0.0
20/07:00pm 36.5 32.2 1.3 11 18.0 N 13 19 7 10 1009.7 1009.1 0.0
20/06:30pm 36.3 33.4 1.2 11 17.9 NNW 6 15 3 8 1009.6 1009.0 0.0
20/06:00pm 36.6 32.0 1.4 11 18.1 SSW 15 20 8 11 1009.6 1009.0 0.0
20/05:30pm 36.8 32.2 1.5 11 18.2 W 15 20 8 11 1010.1 1009.5 0.0
20/05:00pm 35.6 32.0 0.6 11 17.6 NNW 9 17 5 9 1010.7 1010.1 0.0
20/04:30pm 35.7 31.4 0.7 11 17.7 NNW 13 24 7 13 1011.0 1010.4 0.0
20/04:00pm 36.0 32.4 0.9 11 17.8 N 9 17 5 9 1011.4 1010.8 0.0
20/03:30pm 36.5 33.0 1.3 11 18.0 WSW 9 15 5 8 1012.0 1011.3 0.0
20/03:00pm 36.1 31.8 1.0 11 17.8 E 13 20 7 11 1012.4 1011.7 0.0
20/02:30pm 35.4 32.2 0.5 11 17.5 SE 7 17 4 9 1013.0 1012.3 0.0
20/02:00pm 34.5 31.3 1.0 12 16.8 NNE 7 17 4 9 1013.8 1013.1 0.0
20/01:30pm 33.4 29.7 0.1 12 16.4 ENE 9 20 5 11 1014.4 1013.7 0.0
20/01:00pm 32.5 27.8 0.6 13 15.7 NNE 15 24 8 13 1015.0 1014.4 0.0
20/12:30pm 32.3 27.9 0.4 13 15.6 NE 13 26 7 14 1015.4 1014.8 0.0
20/12:00pm 31.3 26.9 2.5 16 14.5 NE 15 26 8 14 1015.7 1015.1 0.0
20/11:30am 30.1 25.0 4.0 19 13.4 NE 20 32 11 17 1016.0 1015.4 0.0
20/11:00am 29.1 24.4 5.2 22 12.5 ENE 19 26 10 14 1016.3 1015.7 0.0

Other Formats:

Comma delimited format used in spreadsheet applications
http://www.bom.gov.au/fwo/IDS60801/IDS60801.94655.axf

JavaScript Object Notation format (JSON) in row-major order
http://www.bom.gov.au/fwo/IDS60801/IDS60801.94655.json